Time;durP1;ratioP1;P1;durP2;ratioP2;P2;SDS_P1;SDS_P2;PMS_P1;PMS_P2;Temp;Humidity;BMP_temperature;BMP_pressure;BME280_temperature;BME280_humidity;BME280_pressure;Samples;Min_cycle;Max_cycle;Signal;HPM_P1;HPM_P2
2023/01/01 00:01:46;;;;;;;15.98;11.18;;;;;;;14.16;60.68;100700.41;6199982;23;20731;-88
2023/01/01 00:04:13;;;;;;;23.02;14.32;;;;;;;14.17;60.63;100690.56;6199825;23;20044;-88
2023/01/01 00:06:39;;;;;;;19.55;9.68;;;;;;;14.25;60.33;100704.28;6187927;23;20001;-88
2023/01/01 00:11:48;;;;;;;;;;;;;;;14.25;60.92;100712.31;6173369;23;20051;-88
2023/01/01 00:14:13;;;;;;;18.55;9.30;;;;;;;14.26;59.61;100702.50;6171910;23;20795;-89
2023/01/01 00:16:39;;;;;;;14.52;6.70;;;;;;;14.32;57.85;100702.91;6173620;23;20005;-88
2023/01/01 00:19:04;;;;;;;17.73;9.95;;;;;;;14.23;58.93;100710.72;6151285;23;20019;-87
2023/01/01 00:21:29;;;;;;;9.65;5.72;;;;;;;14.26;58.46;100719.41;6176500;23;20450;-88
2023/01/01 00:23:55;;;;;;;15.80;6.72;;;;;;;14.19;58.85;100716.28;6177734;23;20005;-88
2023/01/01 00:26:20;;;;;;;13.10;8.00;;;;;;;14.14;58.68;100712.22;6175655;23;20001;-89
2023/01/01 00:28:46;;;;;;;15.07;6.82;;;;;;;14.17;58.59;100718.22;6175716;23;20001;-89
2023/01/01 00:31:18;;;;;;;12.30;6.85;;;;;;;14.25;58.35;100730.19;6148153;23;20052;-89
2023/01/01 00:33:44;;;;;;;12.88;6.10;;;;;;;14.24;58.38;100723.13;6174532;23;20012;-89
2023/01/01 00:36:14;;;;;;;12.75;6.20;;;;;;;14.17;59.02;100712.88;6174703;23;20055;-89
2023/01/01 00:38:42;;;;;;;11.20;5.47;;;;;;;14.19;57.65;100715.44;6175921;23;20016;-88
2023/01/01 00:41:07;;;;;;;11.57;4.93;;;;;;;14.21;57.55;100726.88;6174412;23;20075;-90
2023/01/01 00:43:33;;;;;;;9.68;5.25;;;;;;;14.14;57.58;100706.84;6174425;23;20012;-90
2023/01/01 00:45:58;;;;;;;12.20;6.28;;;;;;;14.19;57.20;100712.75;6175253;23;20088;-90
2023/01/01 00:48:23;;;;;;;11.18;5.10;;;;;;;14.18;57.83;100708.38;6173761;23;20016;-89
2023/01/01 00:50:50;;;;;;;8.60;4.60;;;;;;;14.19;58.23;100715.44;6174772;23;20376;-90
2023/01/01 00:53:16;;;;;;;12.50;4.88;;;;;;;14.14;58.18;100709.53;6173387;23;20019;-89
2023/01/01 00:55:41;;;;;;;9.07;4.93;;;;;;;14.13;57.66;100703.34;6175399;23;20071;-90
2023/01/01 00:58:08;;;;;;;14.40;6.55;;;;;;;14.06;58.98;100699.34;6175471;23;20483;-90
2023/01/01 01:00:33;;;;;;;14.52;6.10;;;;;;;14.05;58.32;100694.97;6174657;23;20036;-90
2023/01/01 01:02:59;;;;;;;9.82;5.60;;;;;;;14.13;57.37;100710.50;6175476;23;20439;-89
2023/01/01 01:05:24;;;;;;;8.88;4.50;;;;;;;14.13;57.68;100705.16;6176275;23;20327;-88
2023/01/01 01:07:50;;;;;;;9.32;4.85;;;;;;;14.14;58.42;100728.28;6180270;23;20005;-90
2023/01/01 01:10:15;;;;;;;10.98;5.03;;;;;;;14.06;58.50;100722.56;6179264;23;20084;-89
2023/01/01 01:12:41;;;;;;;9.27;3.85;;;;;;;14.01;58.90;100709.50;6175342;23;20004;-90
2023/01/01 01:15:08;;;;;;;9.10;4.30;;;;;;;14.04;57.83;100706.59;6177676;23;20327;-89
2023/01/01 01:17:33;;;;;;;9.13;4.10;;;;;;;14.04;57.39;100721.81;6182028;23;20330;-90
2023/01/01 01:19:59;;;;;;;8.90;3.88;;;;;;;14.05;57.35;100723.53;6181297;23;20478;-89
2023/01/01 01:22:24;;;;;;;10.10;4.13;;;;;;;14.00;57.97;100714.94;6179757;23;20009;-89
2023/01/01 01:24:49;;;;;;;10.93;5.22;;;;;;;13.99;57.61;100727.47;6177350;23;20028;-89
2023/01/01 01:27:16;;;;;;;7.70;4.38;;;;;;;13.90;58.32;100725.41;6175745;23;20442;-89
2023/01/01 01:29:42;;;;;;;8.93;4.90;;;;;;;13.90;57.68;100736.13;6177012;23;20012;-90
2023/01/01 01:32:08;;;;;;;13.38;5.35;;;;;;;13.87;57.91;100731.81;6176830;23;20575;-89
2023/01/01 01:34:33;;;;;;;12.45;5.25;;;;;;;13.84;57.92;100724.00;6175067;23;20017;-89
2023/01/01 01:36:59;;;;;;;12.20;5.57;;;;;;;13.83;57.69;100751.69;6175821;23;20013;-88
2023/01/01 01:39:24;;;;;;;10.15;3.75;;;;;;;13.82;58.28;100731.28;6174714;23;20394;-88
2023/01/01 01:41:49;;;;;;;8.23;3.40;;;;;;;13.83;57.90;100730.31;6174106;23;20005;-89
2023/01/01 01:44:47;;;;;;;9.32;3.78;;;;;;;13.76;59.23;100731.69;6173100;23;20680;-89
2023/01/01 01:47:51;;;;;;;6.55;3.50;;;;;;;13.76;58.88;100739.72;6147120;23;20331;-88
2023/01/01 01:50:19;;;;;;;6.93;3.60;;;;;;;13.72;58.95;100756.06;6174075;23;20080;-89
2023/01/01 01:53:17;;;;;;;6.47;3.22;;;;;;;13.74;58.96;100762.16;6176626;23;20020;-89
2023/01/01 01:55:47;;;;;;;8.45;3.72;;;;;;;13.71;58.65;100749.88;6176489;23;20332;-89
2023/01/01 01:58:14;;;;;;;8.70;3.20;;;;;;;13.68;58.49;100750.91;6149737;23;20007;-89
2023/01/01 02:00:40;;;;;;;7.45;3.25;;;;;;;13.67;58.55;100759.03;6175616;23;20343;-89
2023/01/01 02:03:15;;;;;;;10.45;3.53;;;;;;;13.62;59.03;100762.00;6175885;23;20005;-89
2023/01/01 02:05:41;;;;;;;6.93;3.22;;;;;;;13.67;58.38;100764.38;6176080;23;20068;-88
2023/01/01 02:08:08;;;;;;;8.07;3.55;;;;;;;13.67;58.67;100756.38;6175536;23;20005;-88
2023/01/01 02:10:33;;;;;;;8.25;3.35;;;;;;;13.66;59.11;100770.69;6175248;23;20419;-89
2023/01/01 02:12:59;;;;;;;7.53;2.95;;;;;;;13.61;58.76;100770.97;6176782;23;20036;-88
2023/01/01 02:15:29;;;;;;;7.97;3.10;;;;;;;13.61;59.46;100787.03;6176063;23;20410;-88
2023/01/01 02:18:05;;;;;;;9.23;2.85;;;;;;;13.64;58.77;100794.84;6176499;23;20036;-89
2023/01/01 02:20:36;;;;;;;8.30;3.10;;;;;;;13.65;59.24;100774.31;6173952;23;20012;-88
2023/01/01 02:23:07;;;;;;;10.32;3.13;;;;;;;13.55;59.99;100773.22;6176155;23;20001;-88
2023/01/01 02:26:37;;;;;;;6.80;2.72;;;;;;;13.40;61.54;100797.28;6175454;23;20340;-88
2023/01/01 02:29:27;;;;;;;7.43;3.00;;;;;;;13.41;59.65;100793.63;6056033;23;20026;-89
2023/01/01 02:32:01;;;;;;;9.95;3.70;;;;;;;13.36;61.57;100798.41;6054857;23;20722;-88
2023/01/01 02:34:32;;;;;;;6.72;2.75;;;;;;;13.36;62.28;100793.06;6053953;23;20018;-87
2023/01/01 02:37:00;;;;;;;8.20;3.40;;;;;;;13.36;60.74;100790.41;6054479;23;20425;-88
2023/01/01 02:39:30;;;;;;;8.98;3.10;;;;;;;13.33;61.29;100790.59;6053281;23;20158;-88
2023/01/01 02:41:58;;;;;;;7.25;2.67;;;;;;;13.39;60.78;100795.56;6053890;23;20011;-88
2023/01/01 02:44:25;;;;;;;6.32;2.85;;;;;;;13.36;61.24;100777.03;6054955;23;20190;-88
2023/01/01 02:46:51;;;;;;;10.07;3.00;;;;;;;13.31;62.63;100775.63;6057431;23;20087;-88
2023/01/01 02:49:16;;;;;;;7.25;3.00;;;;;;;13.38;60.64;100780.50;6058573;23;20010;-89
2023/01/01 02:52:10;;;;;;;7.28;2.55;;;;;;;13.48;60.71;100770.06;6038486;23;20454;-88
2023/01/01 02:54:52;;;;;;;8.02;2.97;;;;;;;13.50;60.43;100765.44;6029696;23;20034;-88
2023/01/01 02:57:30;;;;;;;7.28;2.70;;;;;;;13.45;60.88;100778.25;6053059;23;20203;-87
2023/01/01 03:00:26;;;;;;;5.05;2.72;;;;;;;13.39;61.19;100789.38;6140059;23;20005;-88
2023/01/01 03:03:00;;;;;;;7.13;2.72;;;;;;;13.36;61.52;100774.38;6174363;23;20015;-87
2023/01/01 03:08:58;;;;;;;6.22;2.50;;;;;;;13.41;61.27;100780.28;6174212;23;20052;-88
2023/01/01 03:11:31;;;;;;;4.65;2.60;;;;;;;13.44;61.19;100804.16;6129755;23;20021;-88
2023/01/01 03:14:17;;;;;;;6.13;2.75;;;;;;;13.43;62.07;100797.09;6177494;23;20016;-89
2023/01/01 03:17:02;;;;;;;5.78;2.22;;;;;;;13.43;62.06;100805.09;6175904;23;20348;-88
2023/01/01 03:19:36;;;;;;;5.78;2.92;;;;;;;13.24;62.94;100801.00;6174597;23;20004;-88
2023/01/01 03:22:10;;;;;;;7.60;2.70;;;;;;;13.14;63.80;100814.06;6175808;23;19997;-88
2023/01/01 03:24:43;;;;;;;6.88;2.80;;;;;;;13.19;63.29;100809.28;6175941;23;20005;-88
2023/01/01 03:27:14;;;;;;;5.57;2.40;;;;;;;13.27;62.77;100812.38;6176793;23;20029;-88
2023/01/01 03:29:42;;;;;;;6.78;2.88;;;;;;;13.25;62.98;100803.59;6176289;23;20009;-88
2023/01/01 03:32:13;;;;;;;6.55;2.63;;;;;;;13.33;62.36;100811.97;6172795;23;20016;-89
2023/01/01 03:34:44;;;;;;;8.13;2.80;;;;;;;13.35;62.47;100810.09;6175335;23;20009;-88
2023/01/01 03:37:18;;;;;;;5.03;2.65;;;;;;;13.34;62.51;100800.34;6177959;23;20009;-87
2023/01/01 03:39:50;;;;;;;4.80;2.67;;;;;;;13.32;62.78;100810.25;6195454;23;20044;-87
2023/01/01 03:42:35;;;;;;;8.88;2.90;;;;;;;13.31;63.55;100813.91;6185039;23;20323;-88
2023/01/01 03:45:20;;;;;;;5.10;2.50;;;;;;;13.29;63.41;100810.44;6190124;23;20331;-89
2023/01/01 03:47:47;;;;;;;4.35;2.55;;;;;;;13.32;63.07;100814.75;6182236;23;20016;-88
2023/01/01 03:50:13;;;;;;;6.35;2.95;;;;;;;13.32;63.22;100818.28;6176818;23;20589;-88
2023/01/01 03:52:46;;;;;;;7.70;2.55;;;;;;;13.30;63.68;100830.91;6178722;23;20005;-88
2023/01/01 03:55:30;;;;;;;6.78;2.35;;;;;;;13.28;63.86;100846.16;6180489;23;20009;-88
2023/01/01 03:58:05;;;;;;;;;;;;;;;13.29;64.29;100855.88;6180577;23;20053;-88
2023/01/01 04:00:33;;;;;;;7.57;2.50;;;;;;;13.27;63.56;100828.41;6179223;23;19935;-88
2023/01/01 04:03:07;;;;;;;7.00;2.60;;;;;;;13.28;64.25;100818.56;6177509;23;20020;-88
2023/01/01 04:05:36;;;;;;;7.22;2.60;;;;;;;13.23;64.60;100821.53;6177153;23;20009;-88
2023/01/01 04:08:02;;;;;;;7.30;2.45;;;;;;;13.24;64.18;100827.75;6178115;23;20059;-87
2023/01/01 04:10:31;;;;;;;5.47;2.50;;;;;;;13.21;64.54;100850.16;6174236;23;20076;-87
2023/01/01 04:12:57;;;;;;;4.10;2.30;;;;;;;13.21;64.86;100853.69;6175470;23;20427;-87
2023/01/01 04:15:26;;;;;;;8.77;2.92;;;;;;;13.25;64.58;100857.06;6174156;23;20001;-88
2023/01/01 04:17:52;;;;;;;4.47;2.33;;;;;;;13.25;64.83;100845.47;6175681;23;20001;-88
2023/01/01 04:20:18;;;;;;;7.03;2.80;;;;;;;13.24;64.96;100851.78;6172749;23;20009;-88
2023/01/01 04:22:44;;;;;;;7.35;2.40;;;;;;;13.23;65.87;100842.06;6175546;23;20617;-88
2023/01/01 04:25:10;;;;;;;6.70;2.55;;;;;;;13.17;66.87;100854.81;6174988;23;20048;-88
2023/01/01 04:27:37;;;;;;;5.03;2.28;;;;;;;13.12;67.01;100850.69;6174345;23;20483;-88
2023/01/01 04:30:04;;;;;;;6.93;2.45;;;;;;;13.08;67.54;100833.97;6175098;23;20064;-88
2023/01/01 04:32:29;;;;;;;8.98;2.70;;;;;;;13.06;67.62;100835.06;6148017;23;20351;-88
2023/01/01 04:34:55;;;;;;;5.88;2.55;;;;;;;13.02;68.19;100833.53;6176446;23;20029;-88
2023/01/01 04:37:20;;;;;;;5.55;2.72;;;;;;;12.96;68.27;100829.44;6173870;23;20541;-88
2023/01/01 04:39:46;;;;;;;6.45;2.63;;;;;;;12.98;68.05;100837.34;6172662;23;20024;-88
2023/01/01 04:42:11;;;;;;;6.50;2.97;;;;;;;12.94;68.79;100842.00;6147532;23;20350;-88
2023/01/01 04:44:36;;;;;;;4.60;2.42;;;;;;;12.88;69.46;100858.41;6173119;23;20335;-88
2023/01/01 04:47:02;;;;;;;5.45;2.20;;;;;;;12.93;69.05;100867.84;6175242;23;20080;-87
2023/01/01 04:49:27;;;;;;;6.95;2.53;;;;;;;12.89;69.03;100869.00;6172135;23;20012;-88
2023/01/01 04:51:53;;;;;;;5.95;2.80;;;;;;;12.91;68.85;100860.88;6174111;23;20005;-88
2023/01/01 04:54:18;;;;;;;4.13;2.20;;;;;;;12.93;68.92;100873.19;6147365;23;20005;-88
2023/01/01 04:56:43;;;;;;;6.55;2.70;;;;;;;12.95;68.83;100870.44;6175601;23;20461;-88
2023/01/01 04:59:08;;;;;;;5.93;3.17;;;;;;;12.90;69.41;100868.03;6173230;23;20024;-87
2023/01/01 05:01:34;;;;;;;5.03;2.33;;;;;;;12.90;69.14;100865.38;6174364;23;20005;-88
2023/01/01 05:04:00;;;;;;;6.35;3.05;;;;;;;12.87;69.74;100868.22;6175075;23;20009;-88
2023/01/01 05:06:27;;;;;;;7.93;3.30;;;;;;;12.82;70.04;100866.78;6174085;23;20008;-88
2023/01/01 05:08:54;;;;;;;7.40;2.60;;;;;;;12.79;69.76;100885.66;6175097;23;20236;-88
2023/01/01 05:11:21;;;;;;;7.72;2.88;;;;;;;12.89;68.77;100893.03;6145952;23;20457;-88
2023/01/01 05:13:49;;;;;;;5.97;2.63;;;;;;;12.90;69.50;100901.91;6174490;23;20424;-87
2023/01/01 05:16:24;;;;;;;6.03;2.70;;;;;;;12.88;69.71;100904.69;6174792;23;20015;-88
2023/01/01 05:18:50;;;;;;;7.35;3.15;;;;;;;12.87;69.79;100899.41;6178860;23;20342;-89
2023/01/01 05:21:24;;;;;;;7.50;2.85;;;;;;;12.90;69.83;100908.09;6175353;23;20032;-88
2023/01/01 05:23:54;;;;;;;6.38;2.80;;;;;;;12.95;69.56;100915.84;6176290;23;20013;-88
2023/01/01 05:26:23;;;;;;;8.13;2.67;;;;;;;12.92;69.94;100924.91;6177519;23;20013;-89
2023/01/01 05:28:48;;;;;;;5.40;2.85;;;;;;;12.88;70.29;100922.53;6151901;23;20485;-88
2023/01/01 05:31:20;;;;;;;8.57;2.88;;;;;;;12.86;70.59;100946.63;6178158;23;20009;-88
2023/01/01 05:33:45;;;;;;;6.68;2.88;;;;;;;12.84;70.36;100950.38;6178455;23;20005;-89
2023/01/01 05:36:16;;;;;;;5.13;2.55;;;;;;;12.85;70.91;100949.41;6151922;23;20012;-88
2023/01/01 05:38:42;;;;;;;6.72;3.05;;;;;;;12.78;70.83;100948.88;6176666;23;20439;-88
2023/01/01 05:41:09;;;;;;;6.03;2.90;;;;;;;12.80;70.81;100946.16;6176510;23;20004;-88
2023/01/01 05:43:35;;;;;;;7.07;3.00;;;;;;;12.78;71.24;100948.88;6177171;23;20032;-87
2023/01/01 05:46:14;;;;;;;6.70;2.92;;;;;;;12.75;71.29;100953.53;6176114;23;20001;-88
2023/01/01 05:48:39;;;;;;;6.95;2.90;;;;;;;12.76;71.39;100966.84;6149245;23;20012;-88
2023/01/01 05:51:07;;;;;;;7.13;2.95;;;;;;;12.77;71.20;100962.34;6147835;23;20005;-89
2023/01/01 05:53:33;;;;;;;9.18;3.45;;;;;;;12.75;71.48;100964.22;6175238;23;20059;-89
2023/01/01 05:55:58;;;;;;;8.68;2.95;;;;;;;12.76;71.35;100977.53;6176545;23;20176;-89
2023/01/01 05:58:25;;;;;;;8.10;2.90;;;;;;;12.73;71.31;100974.16;6174976;23;20108;-88
2023/01/01 06:00:50;;;;;;;5.50;3.00;;;;;;;12.71;71.76;100995.63;6175163;23;20028;-88
2023/01/01 06:03:16;;;;;;;6.97;2.90;;;;;;;12.68;71.84;100996.66;6174058;23;20327;-88
2023/01/01 06:05:41;;;;;;;6.18;2.97;;;;;;;12.74;71.39;101010.59;6176024;23;20005;-88
2023/01/01 06:08:06;;;;;;;8.38;2.65;;;;;;;12.73;71.54;101004.38;6175917;23;20000;-88
2023/01/01 06:10:32;;;;;;;6.53;2.40;;;;;;;12.69;71.81;100998.34;6147631;23;20012;-89
2023/01/01 06:12:57;;;;;;;8.60;3.08;;;;;;;12.68;72.01;100999.31;6174826;23;20027;-89
2023/01/01 06:15:23;;;;;;;7.32;2.78;;;;;;;12.66;72.30;100995.00;6173801;23;20084;-87
2023/01/01 06:17:49;;;;;;;6.70;2.70;;;;;;;12.60;71.95;100988.22;6148122;23;20054;-88
2023/01/01 06:20:14;;;;;;;6.43;3.00;;;;;;;12.66;72.11;101014.56;6176482;23;20009;-89
2023/01/01 06:22:39;;;;;;;5.00;2.47;;;;;;;12.64;72.81;101019.13;6184285;23;20005;-88
2023/01/01 06:25:05;;;;;;;7.22;3.13;;;;;;;12.64;72.64;101012.94;6180370;23;20005;-88
2023/01/01 06:27:30;;;;;;;7.03;2.65;;;;;;;12.64;72.62;101010.25;6153430;23;20008;-87
2023/01/01 06:29:56;;;;;;;8.65;3.10;;;;;;;12.61;72.80;101013.97;6183829;23;20009;-88
2023/01/01 06:32:22;;;;;;;7.95;2.97;;;;;;;12.61;72.92;101021.97;6182123;23;20317;-88
2023/01/01 06:34:47;;;;;;;7.32;3.13;;;;;;;12.58;73.05;101027.50;6181676;23;20012;-88
2023/01/01 06:37:12;;;;;;;7.30;2.65;;;;;;;12.55;73.23;101037.50;6179073;23;20481;-88
2023/01/01 06:39:37;;;;;;;5.88;2.83;;;;;;;12.53;74.29;101044.72;6176979;23;20021;-88
2023/01/01 06:42:04;;;;;;;11.02;2.70;;;;;;;12.38;76.20;101054.44;6179142;23;20001;-88
2023/01/01 06:44:29;;;;;;;7.57;2.63;;;;;;;12.21;77.30;101066.03;6176874;23;20019;-88
2023/01/01 06:46:54;;;;;;;7.18;2.72;;;;;;;12.18;78.13;101072.38;6175816;23;20623;-88
2023/01/01 06:49:19;;;;;;;6.05;3.00;;;;;;;12.07;82.98;101084.56;6173946;23;20001;-88
2023/01/01 06:51:45;;;;;;;9.20;3.30;;;;;;;11.70;87.72;101083.81;6175899;23;20075;-88
2023/01/01 06:54:11;;;;;;;9.15;3.50;;;;;;;11.35;92.29;101105.13;6175118;23;20334;-87
2023/01/01 06:56:37;;;;;;;8.27;3.15;;;;;;;10.98;95.47;101106.06;6175019;23;20071;-87
2023/01/01 06:59:03;;;;;;;6.93;3.13;;;;;;;10.76;98.78;101108.91;6175440;23;20009;-87
2023/01/01 07:01:30;;;;;;;8.15;3.20;;;;;;;10.59;100.00;101132.78;6173433;23;20012;-87
2023/01/01 07:03:58;;;;;;;11.40;3.40;;;;;;;10.51;100.00;101140.25;6175845;23;20001;-87
2023/01/01 07:06:24;;;;;;;8.02;3.20;;;;;;;10.41;100.00;101139.81;6175395;23;20004;-87
2023/01/01 07:08:50;;;;;;;9.75;3.63;;;;;;;10.28;100.00;101122.66;6176038;23;20005;-87
2023/01/01 07:11:15;;;;;;;12.80;4.70;;;;;;;10.21;100.00;101114.94;6173722;23;20028;-87
2023/01/01 07:13:41;;;;;;;7.78;3.92;;;;;;;10.19;100.00;101132.75;6175626;23;20028;-87
2023/01/01 07:16:07;;;;;;;10.98;5.00;;;;;;;10.19;100.00;101143.38;6177585;23;20316;-87
2023/01/01 07:18:32;;;;;;;9.20;4.05;;;;;;;10.15;100.00;101156.91;6176065;23;20017;-87
2023/01/01 07:21:00;;;;;;;8.88;3.90;;;;;;;10.09;100.00;101166.03;6175994;23;20005;-87
2023/01/01 07:23:27;;;;;;;7.15;4.25;;;;;;;10.02;100.00;101158.38;6177521;23;20347;-86
2023/01/01 07:25:53;;;;;;;10.13;3.92;;;;;;;9.95;100.00;101156.00;6151559;23;20009;-87
2023/01/01 07:28:20;;;;;;;11.65;4.10;;;;;;;9.93;100.00;101154.31;6174940;23;20009;-86
2023/01/01 07:30:46;;;;;;;8.32;4.30;;;;;;;9.87;100.00;101154.59;6175114;23;20009;-86
2023/01/01 07:33:13;;;;;;;10.40;4.00;;;;;;;9.92;100.00;101173.88;6175760;23;20011;-87
2023/01/01 07:35:39;;;;;;;8.13;4.18;;;;;;;9.87;100.00;101182.03;6174611;23;20067;-87
2023/01/01 07:38:05;;;;;;;10.57;4.38;;;;;;;9.87;100.00;101187.38;6174455;23;20040;-87
2023/01/01 07:40:30;;;;;;;10.80;4.43;;;;;;;9.85;100.00;101183.88;6173112;23;20332;-87
2023/01/01 07:42:55;;;;;;;9.88;4.43;;;;;;;9.84;100.00;101176.00;6173771;23;20032;-87
2023/01/01 07:45:21;;;;;;;13.15;4.50;;;;;;;9.86;100.00;101174.97;6173199;23;20011;-87
2023/01/01 07:47:51;;;;;;;7.72;3.92;;;;;;;9.87;100.00;101171.41;6176760;23;20005;-87
2023/01/01 07:50:18;;;;;;;11.00;4.22;;;;;;;9.88;100.00;101185.56;6173739;23;20005;-87
2023/01/01 07:52:44;;;;;;;10.00;4.32;;;;;;;9.86;100.00;101176.78;6173652;23;20057;-87
2023/01/01 07:55:14;;;;;;;8.77;3.92;;;;;;;9.85;100.00;101175.91;6173850;23;20013;-87
2023/01/01 07:57:40;;;;;;;8.63;4.55;;;;;;;9.82;100.00;101176.03;6173478;23;20039;-87
2023/01/01 08:00:06;;;;;;;8.38;4.28;;;;;;;9.83;100.00;101184.91;6173065;23;20005;-87
2023/01/01 08:02:31;;;;;;;10.48;4.85;;;;;;;9.80;100.00;101201.84;6174166;23;20001;-86
2023/01/01 08:04:57;;;;;;;9.32;4.50;;;;;;;9.82;100.00;101205.28;6186025;23;20005;-87
2023/01/01 08:07:22;;;;;;;7.43;4.00;;;;;;;9.80;100.00;101215.13;6186882;23;20486;-87
2023/01/01 08:09:47;;;;;;;10.55;4.43;;;;;;;9.73;100.00;101216.31;6188914;23;20005;-87
2023/01/01 08:12:13;;;;;;;12.95;5.40;;;;;;;9.73;100.00;101229.59;6179603;23;20001;-86
2023/01/01 08:14:38;;;;;;;10.95;4.60;;;;;;;9.74;100.00;101236.66;6176707;23;20446;-87
2023/01/01 08:17:03;;;;;;;13.35;4.70;;;;;;;9.79;100.00;101239.13;6175880;23;20016;-87
2023/01/01 08:19:28;;;;;;;8.23;3.97;;;;;;;9.81;100.00;101247.88;6173725;23;20063;-86
2023/01/01 08:21:54;;;;;;;9.35;3.95;;;;;;;9.72;100.00;101233.19;6148578;23;20039;-87
2023/01/01 08:24:19;;;;;;;7.47;4.00;;;;;;;9.82;100.00;101233.66;6173394;23;20339;-87
2023/01/01 08:26:47;;;;;;;7.65;3.85;;;;;;;9.82;100.00;101250.47;6174627;23;20009;-87
2023/01/01 08:29:13;;;;;;;6.95;3.65;;;;;;;9.82;100.00;101241.63;6175939;23;20009;-87
2023/01/01 08:31:38;;;;;;;8.90;4.20;;;;;;;9.83;100.00;101240.72;6177303;23;20136;-86
2023/01/01 08:34:03;;;;;;;10.32;4.13;;;;;;;9.86;100.00;101252.06;6150598;23;20012;-86
2023/01/01 08:36:29;;;;;;;7.88;3.85;;;;;;;9.87;100.00;101259.16;6149196;23;20013;-87
2023/01/01 08:38:54;;;;;;;8.27;3.63;;;;;;;9.87;100.00;101261.81;6175895;23;20023;-88
2023/01/01 08:41:20;;;;;;;7.78;3.60;;;;;;;9.88;100.00;101260.00;6174418;23;19997;-87
2023/01/01 08:43:45;;;;;;;10.48;4.20;;;;;;;9.85;100.00;101258.31;6176105;23;20005;-88
2023/01/01 08:46:10;;;;;;;10.23;4.05;;;;;;;9.86;100.00;101278.66;6176859;23;20036;-87
2023/01/01 08:48:35;;;;;;;9.98;4.28;;;;;;;9.92;100.00;101294.38;6154846;23;20009;-87
2023/01/01 08:51:01;;;;;;;8.48;3.42;;;;;;;9.87;100.00;101301.69;6198064;23;20028;-87
2023/01/01 08:53:28;;;;;;;11.27;4.07;;;;;;;9.85;100.00;101295.56;6201761;23;19993;-89
2023/01/01 08:55:59;;;;;;;7.97;4.18;;;;;;;9.85;100.00;101284.91;6202395;23;20024;-89
2023/01/01 08:58:25;;;;;;;9.77;4.15;;;;;;;9.86;100.00;101302.59;6203047;23;19997;-90
2023/01/01 09:00:50;;;;;;;10.45;4.22;;;;;;;9.82;100.00;101285.03;6202597;23;20040;-90
2023/01/01 09:03:15;;;;;;;9.40;4.07;;;;;;;9.83;100.00;101299.22;6199016;23;19993;-90
2023/01/01 09:05:44;;;;;;;12.55;4.50;;;;;;;9.84;100.00;101295.63;6183097;23;20548;-89
2023/01/01 09:08:13;;;;;;;12.32;4.88;;;;;;;9.78;100.00;101293.19;6180853;23;20005;-90
2023/01/01 09:10:39;;;;;;;10.40;4.13;;;;;;;9.73;100.00;101282.75;6180831;23;20451;-90
2023/01/01 09:13:04;;;;;;;10.63;4.47;;;;;;;9.81;100.00;101287.75;6181882;23;20040;-89
2023/01/01 09:15:30;;;;;;;10.70;4.43;;;;;;;9.81;100.00;101285.97;6180606;23;20008;-88
2023/01/01 09:17:55;;;;;;;8.30;4.25;;;;;;;9.87;100.00;101304.34;6179224;23;20806;-89
2023/01/01 09:20:21;;;;;;;11.45;4.82;;;;;;;9.85;100.00;101306.19;6178540;23;20004;-88
2023/01/01 09:22:46;;;;;;;8.43;4.40;;;;;;;9.87;100.00;101307.00;6180074;23;20005;-88
2023/01/01 09:25:12;;;;;;;8.27;3.95;;;;;;;9.84;100.00;101296.50;6179655;23;20009;-88
2023/01/01 09:27:37;;;;;;;9.95;4.15;;;;;;;9.88;100.00;101306.06;6180799;23;20019;-87
2023/01/01 09:30:03;;;;;;;9.45;4.28;;;;;;;9.87;100.00;101303.50;6152709;23;20016;-90
2023/01/01 09:32:28;;;;;;;9.10;4.55;;;;;;;9.86;100.00;101313.22;6176789;23;20013;-88
2023/01/01 09:34:55;;;;;;;7.20;4.35;;;;;;;9.85;100.00;101300.00;6152358;23;20016;-89
2023/01/01 09:37:21;;;;;;;8.15;4.60;;;;;;;9.79;100.00;101281.66;6176821;23;20752;-89
2023/01/01 09:39:46;;;;;;;9.38;4.80;;;;;;;9.88;100.00;101295.44;6176005;23;20008;-89
2023/01/01 09:42:32;;;;;;;9.63;5.10;;;;;;;9.97;100.00;101305.69;6176590;23;20011;-89
2023/01/01 09:45:22;;;;;;;9.70;5.07;;;;;;;10.00;100.00;101294.06;6177251;23;20005;-88
2023/01/01 09:47:56;;;;;;;9.73;5.22;;;;;;;9.96;100.00;101303.97;6176871;23;20001;-87
2023/01/01 09:50:30;;;;;;;8.77;5.35;;;;;;;9.97;100.00;101303.03;6174967;23;20013;-86
2023/01/01 09:53:01;;;;;;;13.13;5.43;;;;;;;9.96;100.00;101298.66;6176226;23;20009;-88
2023/01/01 09:55:43;;;;;;;12.15;6.65;;;;;;;9.93;100.00;101303.22;6175425;23;20013;-87
2023/01/01 09:58:10;;;;;;;11.45;5.38;;;;;;;9.94;100.00;101310.25;6176055;23;20035;-88
2023/01/01 10:00:38;;;;;;;8.50;4.57;;;;;;;9.97;100.00;101321.66;6149995;23;20029;-90
2023/01/01 10:03:10;;;;;;;10.60;5.60;;;;;;;9.96;100.00;101311.94;6150263;23;20009;-89
2023/01/01 10:05:38;;;;;;;12.13;5.47;;;;;;;10.01;100.00;101316.22;6175271;23;20020;-87
2023/01/01 10:08:22;;;;;;;14.93;5.15;;;;;;;9.98;100.00;101310.06;6174799;23;20522;-88
2023/01/01 10:11:11;;;;;;;9.40;5.20;;;;;;;10.02;100.00;101305.50;6176128;23;20081;-91
2023/01/01 10:13:42;;;;;;;9.50;4.63;;;;;;;10.05;100.00;101308.03;6175293;23;20008;-90
2023/01/01 10:16:32;;;;;;;14.35;5.30;;;;;;;10.09;100.00;101306.97;6148635;23;20384;-88
2023/01/01 10:19:06;;;;;;;11.02;4.50;;;;;;;10.16;100.00;101304.94;6174955;23;20016;-88
2023/01/01 10:21:34;;;;;;;;;;;;;;;10.09;100.00;101311.44;6175608;23;20017;-88
2023/01/01 10:24:21;;;;;;;12.18;5.15;;;;;;;10.27;100.00;101313.34;6176402;23;19947;-88
2023/01/01 10:26:49;;;;;;;9.57;4.60;;;;;;;10.34;100.00;101309.50;6176072;23;20020;-87
2023/01/01 10:29:31;;;;;;;9.45;4.82;;;;;;;10.40;100.00;101314.56;6179045;23;20036;-89
2023/01/01 10:31:57;;;;;;;10.57;5.15;;;;;;;10.50;100.00;101319.50;6192237;23;20092;-90
2023/01/01 10:34:25;;;;;;;11.32;4.75;;;;;;;10.58;100.00;101318.25;6192675;23;20412;-89
2023/01/01 10:36:53;;;;;;;11.55;4.88;;;;;;;10.67;100.00;101314.31;6190381;23;20005;-87
2023/01/01 10:39:18;;;;;;;9.95;4.80;;;;;;;10.74;100.00;101313.09;6186094;23;20109;-88
2023/01/01 10:41:45;;;;;;;11.18;4.50;;;;;;;10.79;100.00;101313.78;6184815;23;20016;-90
2023/01/01 10:44:12;;;;;;;11.23;4.88;;;;;;;10.89;100.00;101315.09;6174482;23;20032;-86
2023/01/01 10:46:43;;;;;;;9.00;4.20;;;;;;;10.93;100.00;101305.16;6176837;23;20082;-88
2023/01/01 10:49:11;;;;;;;9.52;4.82;;;;;;;11.06;100.00;101308.16;6177015;23;20104;-86
2023/01/01 10:51:42;;;;;;;10.65;4.55;;;;;;;11.12;100.00;101302.53;6152190;23;20005;-87
2023/01/01 10:54:36;;;;;;;12.90;4.68;;;;;;;11.13;100.00;101309.59;6151690;23;20012;-89
2023/01/01 10:57:26;;;;;;;12.43;4.28;;;;;;;11.19;100.00;101298.66;6177036;23;20419;-88
2023/01/01 10:59:52;;;;;;;10.57;4.22;;;;;;;11.27;100.00;101296.50;6148426;23;20005;-86
2023/01/01 11:02:26;;;;;;;9.75;4.57;;;;;;;11.34;100.00;101297.94;6171711;23;20251;-88
2023/01/01 11:05:18;;;;;;;11.00;4.38;;;;;;;11.40;100.00;101297.66;6175665;23;20761;-88
2023/01/01 11:07:44;;;;;;;8.80;4.32;;;;;;;11.46;100.00;101313.38;6174685;23;20087;-87
2023/01/01 11:10:21;;;;;;;9.98;4.15;;;;;;;11.54;98.63;101309.47;6173118;23;20053;-88
2023/01/01 11:12:47;;;;;;;10.77;4.20;;;;;;;11.58;98.40;101316.38;6174615;23;20004;-88
2023/01/01 11:15:35;;;;;;;12.02;4.47;;;;;;;11.61;99.37;101327.75;6174432;23;20009;-88
2023/01/01 11:18:26;;;;;;;10.13;3.88;;;;;;;11.64;98.50;101329.44;6182418;23;20088;-88
2023/01/01 11:20:57;;;;;;;11.18;3.72;;;;;;;11.72;97.40;101328.13;6153848;23;20336;-88
2023/01/01 11:23:38;;;;;;;11.20;3.95;;;;;;;11.87;96.68;101339.91;6185415;23;20005;-89
2023/01/01 11:26:12;;;;;;;7.28;3.10;;;;;;;12.00;95.71;101344.63;6171215;23;20008;-88
2023/01/01 11:28:38;;;;;;;10.02;3.70;;;;;;;12.08;90.98;101348.66;6192886;23;20061;-87
2023/01/01 11:31:08;;;;;;;6.65;3.20;;;;;;;12.05;91.37;101335.47;6170589;23;20001;-88
2023/01/01 11:33:38;;;;;;;8.32;3.22;;;;;;;12.06;90.98;101334.50;6184414;23;20316;-88
2023/01/01 11:36:05;;;;;;;9.63;3.08;;;;;;;12.13;90.08;101335.09;6177569;23;20058;-88
2023/01/01 11:38:30;;;;;;;11.25;3.75;;;;;;;12.15;89.65;101312.72;6176119;23;20013;-89